sensor_id;sensor_type;location;lat;lon;timestamp;temperature;humidity
9151;DHT22;4610;50.006;7.490;2023-03-31T00:00:33;9.40;99.90
9151;DHT22;4610;50.006;7.490;2023-03-31T00:03:00;9.40;99.90
9151;DHT22;4610;50.006;7.490;2023-03-31T00:05:27;9.40;99.90
9151;DHT22;4610;50.006;7.490;2023-03-31T00:07:55;9.40;99.90
9151;DHT22;4610;50.006;7.490;2023-03-31T00:10:25;9.40;99.90
9151;DHT22;4610;50.006;7.490;2023-03-31T00:12:52;9.40;99.90
9151;DHT22;4610;50.006;7.490;2023-03-31T00:15:20;9.40;99.90
9151;DHT22;4610;50.006;7.490;2023-03-31T00:17:47;9.40;99.90
9151;DHT22;4610;50.006;7.490;2023-03-31T00:20:14;9.40;99.90
9151;DHT22;4610;50.006;7.490;2023-03-31T00:22:41;9.40;99.90
9151;DHT22;4610;50.006;7.490;2023-03-31T00:25:11;9.30;99.90
9151;DHT22;4610;50.006;7.490;2023-03-31T00:27:41;9.40;99.90
9151;DHT22;4610;50.006;7.490;2023-03-31T00:30:09;9.40;99.90
9151;DHT22;4610;50.006;7.490;2023-03-31T00:32:38;9.30;99.90
9151;DHT22;4610;50.006;7.490;2023-03-31T00:35:05;9.30;99.90
9151;DHT22;4610;50.006;7.490;2023-03-31T00:37:33;9.30;99.90
9151;DHT22;4610;50.006;7.490;2023-03-31T00:40:00;9.30;99.90
9151;DHT22;4610;50.006;7.490;2023-03-31T00:42:27;9.40;99.90
9151;DHT22;4610;50.006;7.490;2023-03-31T00:45:25;9.40;99.90
9151;DHT22;4610;50.006;7.490;2023-03-31T00:47:58;9.50;99.90
9151;DHT22;4610;50.006;7.490;2023-03-31T00:50:29;9.50;99.90
9151;DHT22;4610;50.006;7.490;2023-03-31T00:53:01;9.50;99.90
9151;DHT22;4610;50.006;7.490;2023-03-31T00:55:33;9.40;99.90
9151;DHT22;4610;50.006;7.490;2023-03-31T00:58:02;9.40;99.90
9151;DHT22;4610;50.006;7.490;2023-03-31T01:00:29;9.50;99.90
9151;DHT22;4610;50.006;7.490;2023-03-31T01:03:00;9.40;99.90
9151;DHT22;4610;50.006;7.490;2023-03-31T01:05:31;9.40;99.90
9151;DHT22;4610;50.006;7.490;2023-03-31T01:08:01;9.40;99.90
9151;DHT22;4610;50.006;7.490;2023-03-31T01:10:33;9.40;99.90
9151;DHT22;4610;50.006;7.490;2023-03-31T01:13:07;9.30;99.90
9151;DHT22;4610;50.006;7.490;2023-03-31T01:15:35;9.20;99.90
9151;DHT22;4610;50.006;7.490;2023-03-31T01:18:03;9.20;99.90
9151;DHT22;4610;50.006;7.490;2023-03-31T01:20:36;9.20;99.90
9151;DHT22;4610;50.006;7.490;2023-03-31T01:23:31;9.20;99.90
9151;DHT22;4610;50.006;7.490;2023-03-31T01:29:07;9.10;99.90
9151;DHT22;4610;50.006;7.490;2023-03-31T01:32:06;9.10;99.90
9151;DHT22;4610;50.006;7.490;2023-03-31T01:38:36;9.00;99.90
9151;DHT22;4610;50.006;7.490;2023-03-31T01:41:22;9.00;99.90
9151;DHT22;4610;50.006;7.490;2023-03-31T01:44:01;9.10;99.90
9151;DHT22;4610;50.006;7.490;2023-03-31T01:46:32;9.00;99.90
9151;DHT22;4610;50.006;7.490;2023-03-31T01:49:07;9.00;99.90
9151;DHT22;4610;50.006;7.490;2023-03-31T01:51:43;9.00;99.90
9151;DHT22;4610;50.006;7.490;2023-03-31T01:54:18;9.00;99.90
9151;DHT22;4610;50.006;7.490;2023-03-31T01:56:49;9.00;99.90
9151;DHT22;4610;50.006;7.490;2023-03-31T01:59:20;9.00;99.90
9151;DHT22;4610;50.006;7.490;2023-03-31T02:01:51;9.00;99.90
9151;DHT22;4610;50.006;7.490;2023-03-31T02:04:22;9.00;99.90
9151;DHT22;4610;50.006;7.490;2023-03-31T02:06:53;9.10;99.90
9151;DHT22;4610;50.006;7.490;2023-03-31T02:09:24;9.10;99.90
9151;DHT22;4610;50.006;7.490;2023-03-31T02:11:54;9.10;99.90
9151;DHT22;4610;50.006;7.490;2023-03-31T02:14:26;9.20;99.90
9151;DHT22;4610;50.006;7.490;2023-03-31T02:16:56;9.10;99.90
9151;DHT22;4610;50.006;7.490;2023-03-31T02:19:30;9.10;99.90
9151;DHT22;4610;50.006;7.490;2023-03-31T02:21:58;9.20;99.90
9151;DHT22;4610;50.006;7.490;2023-03-31T02:24:27;9.20;99.90
9151;DHT22;4610;50.006;7.490;2023-03-31T02:27:02;9.20;99.90
9151;DHT22;4610;50.006;7.490;2023-03-31T02:29:30;9.30;99.90
9151;DHT22;4610;50.006;7.490;2023-03-31T02:32:01;9.30;99.90
9151;DHT22;4610;50.006;7.490;2023-03-31T02:34:30;9.30;99.90
9151;DHT22;4610;50.006;7.490;2023-03-31T02:36:57;9.30;99.90
9151;DHT22;4610;50.006;7.490;2023-03-31T02:39:25;9.20;99.90
9151;DHT22;4610;50.006;7.490;2023-03-31T02:41:53;9.20;99.90
9151;DHT22;4610;50.006;7.490;2023-03-31T02:44:22;9.20;99.90
9151;DHT22;4610;50.006;7.490;2023-03-31T02:46:49;9.20;99.90
9151;DHT22;4610;50.006;7.490;2023-03-31T02:49:17;9.10;99.90
9151;DHT22;4610;50.006;7.490;2023-03-31T02:52:08;9.10;99.90
9151;DHT22;4610;50.006;7.490;2023-03-31T02:54:56;9.10;99.90
9151;DHT22;4610;50.006;7.490;2023-03-31T02:57:55;9.10;99.90
9151;DHT22;4610;50.006;7.490;2023-03-31T03:00:34;9.00;99.90
9151;DHT22;4610;50.006;7.490;2023-03-31T03:03:17;8.90;99.90
9151;DHT22;4610;50.006;7.490;2023-03-31T03:05:49;8.80;99.90
9151;DHT22;4610;50.006;7.490;2023-03-31T03:08:28;8.80;99.90
9151;DHT22;4610;50.006;7.490;2023-03-31T03:11:04;8.70;99.90
9151;DHT22;4610;50.006;7.490;2023-03-31T03:13:35;8.70;99.90
9151;DHT22;4610;50.006;7.490;2023-03-31T03:16:12;8.70;99.90
9151;DHT22;4610;50.006;7.490;2023-03-31T03:18:43;8.70;99.90
9151;DHT22;4610;50.006;7.490;2023-03-31T03:21:10;8.70;99.90
9151;DHT22;4610;50.006;7.490;2023-03-31T03:23:37;8.70;99.90
9151;DHT22;4610;50.006;7.490;2023-03-31T03:26:04;8.60;99.90
9151;DHT22;4610;50.006;7.490;2023-03-31T03:28:31;8.60;99.90
9151;DHT22;4610;50.006;7.490;2023-03-31T03:30:57;8.60;99.90
9151;DHT22;4610;50.006;7.490;2023-03-31T03:33:25;8.60;99.90
9151;DHT22;4610;50.006;7.490;2023-03-31T03:35:52;8.60;99.90
9151;DHT22;4610;50.006;7.490;2023-03-31T03:38:19;8.50;99.90
9151;DHT22;4610;50.006;7.490;2023-03-31T03:40:46;8.50;99.90
9151;DHT22;4610;50.006;7.490;2023-03-31T03:43:12;8.50;99.90
9151;DHT22;4610;50.006;7.490;2023-03-31T03:45:39;8.50;99.90
9151;DHT22;4610;50.006;7.490;2023-03-31T03:48:06;8.40;99.90
9151;DHT22;4610;50.006;7.490;2023-03-31T03:50:36;8.50;99.90
9151;DHT22;4610;50.006;7.490;2023-03-31T03:53:03;8.50;99.90
9151;DHT22;4610;50.006;7.490;2023-03-31T03:55:30;8.50;99.90
9151;DHT22;4610;50.006;7.490;2023-03-31T03:57:57;8.50;99.90
9151;DHT22;4610;50.006;7.490;2023-03-31T04:00:24;8.50;99.90
9151;DHT22;4610;50.006;7.490;2023-03-31T04:02:50;8.50;99.90
9151;DHT22;4610;50.006;7.490;2023-03-31T04:05:17;8.50;99.90
9151;DHT22;4610;50.006;7.490;2023-03-31T04:07:45;8.50;99.90
9151;DHT22;4610;50.006;7.490;2023-03-31T04:10:12;8.50;99.90
9151;DHT22;4610;50.006;7.490;2023-03-31T04:12:39;8.50;99.90
9151;DHT22;4610;50.006;7.490;2023-03-31T04:15:11;8.60;99.90
9151;DHT22;4610;50.006;7.490;2023-03-31T04:17:38;8.60;99.90
9151;DHT22;4610;50.006;7.490;2023-03-31T04:20:07;8.60;99.90
9151;DHT22;4610;50.006;7.490;2023-03-31T04:22:34;8.50;99.90
9151;DHT22;4610;50.006;7.490;2023-03-31T04:25:08;8.60;99.90
9151;DHT22;4610;50.006;7.490;2023-03-31T04:27:40;8.60;99.90
9151;DHT22;4610;50.006;7.490;2023-03-31T04:30:12;8.60;99.90
9151;DHT22;4610;50.006;7.490;2023-03-31T04:32:39;8.60;99.90
9151;DHT22;4610;50.006;7.490;2023-03-31T04:35:06;8.60;99.90
9151;DHT22;4610;50.006;7.490;2023-03-31T04:37:33;8.50;99.90
9151;DHT22;4610;50.006;7.490;2023-03-31T04:40:00;8.50;99.90
9151;DHT22;4610;50.006;7.490;2023-03-31T04:42:34;8.50;99.90
9151;DHT22;4610;50.006;7.490;2023-03-31T04:45:01;8.50;99.90
9151;DHT22;4610;50.006;7.490;2023-03-31T04:47:28;8.50;99.90
9151;DHT22;4610;50.006;7.490;2023-03-31T04:49:55;8.50;99.90
9151;DHT22;4610;50.006;7.490;2023-03-31T04:52:21;8.40;99.90
9151;DHT22;4610;50.006;7.490;2023-03-31T04:54:48;8.50;99.90
9151;DHT22;4610;50.006;7.490;2023-03-31T04:57:15;8.40;99.90
9151;DHT22;4610;50.006;7.490;2023-03-31T04:59:43;8.50;99.90
9151;DHT22;4610;50.006;7.490;2023-03-31T05:02:10;8.40;99.90
9151;DHT22;4610;50.006;7.490;2023-03-31T05:04:37;8.40;99.90
9151;DHT22;4610;50.006;7.490;2023-03-31T05:07:04;8.40;99.90
9151;DHT22;4610;50.006;7.490;2023-03-31T05:09:30;8.40;99.90
9151;DHT22;4610;50.006;7.490;2023-03-31T05:11:57;8.40;99.90
9151;DHT22;4610;50.006;7.490;2023-03-31T05:14:24;8.40;99.90
9151;DHT22;4610;50.006;7.490;2023-03-31T05:16:53;8.40;99.90
9151;DHT22;4610;50.006;7.490;2023-03-31T05:19:22;8.30;99.90
9151;DHT22;4610;50.006;7.490;2023-03-31T05:21:49;8.30;99.90
9151;DHT22;4610;50.006;7.490;2023-03-31T05:24:15;8.30;99.90
9151;DHT22;4610;50.006;7.490;2023-03-31T05:26:42;8.30;99.90
9151;DHT22;4610;50.006;7.490;2023-03-31T05:29:13;8.30;99.90
9151;DHT22;4610;50.006;7.490;2023-03-31T05:31:41;8.30;99.90
9151;DHT22;4610;50.006;7.490;2023-03-31T05:34:09;8.30;99.90
9151;DHT22;4610;50.006;7.490;2023-03-31T05:36:35;8.30;99.90
9151;DHT22;4610;50.006;7.490;2023-03-31T05:39:03;8.40;99.90
9151;DHT22;4610;50.006;7.490;2023-03-31T05:41:29;8.30;99.90
9151;DHT22;4610;50.006;7.490;2023-03-31T05:43:56;8.40;99.90
9151;DHT22;4610;50.006;7.490;2023-03-31T05:46:23;8.40;99.90
9151;DHT22;4610;50.006;7.490;2023-03-31T05:48:51;8.40;99.90
9151;DHT22;4610;50.006;7.490;2023-03-31T05:51:19;8.80;99.90
9151;DHT22;4610;50.006;7.490;2023-03-31T05:53:46;8.80;99.90
9151;DHT22;4610;50.006;7.490;2023-03-31T05:56:12;8.80;99.90
9151;DHT22;4610;50.006;7.490;2023-03-31T05:58:39;8.70;99.90
9151;DHT22;4610;50.006;7.490;2023-03-31T06:01:08;8.70;99.90
9151;DHT22;4610;50.006;7.490;2023-03-31T06:03:36;8.70;99.90
9151;DHT22;4610;50.006;7.490;2023-03-31T06:06:04;8.60;99.90
9151;DHT22;4610;50.006;7.490;2023-03-31T06:08:34;8.60;99.90
9151;DHT22;4610;50.006;7.490;2023-03-31T06:11:04;8.60;99.90
9151;DHT22;4610;50.006;7.490;2023-03-31T06:13:30;8.60;99.90
9151;DHT22;4610;50.006;7.490;2023-03-31T06:15:58;8.60;99.90
9151;DHT22;4610;50.006;7.490;2023-03-31T06:18:27;8.70;99.90
9151;DHT22;4610;50.006;7.490;2023-03-31T06:20:54;8.70;99.90
9151;DHT22;4610;50.006;7.490;2023-03-31T06:23:21;8.70;99.90
9151;DHT22;4610;50.006;7.490;2023-03-31T06:25:50;8.60;99.90
9151;DHT22;4610;50.006;7.490;2023-03-31T06:28:18;9.00;99.90
9151;DHT22;4610;50.006;7.490;2023-03-31T06:30:45;9.30;99.90
9151;DHT22;4610;50.006;7.490;2023-03-31T06:33:12;9.00;99.90
9151;DHT22;4610;50.006;7.490;2023-03-31T06:35:39;8.90;99.90
9151;DHT22;4610;50.006;7.490;2023-03-31T06:38:07;8.80;99.90
9151;DHT22;4610;50.006;7.490;2023-03-31T06:40:33;8.80;99.90
9151;DHT22;4610;50.006;7.490;2023-03-31T06:43:02;8.70;99.90
9151;DHT22;4610;50.006;7.490;2023-03-31T06:45:28;8.70;99.90
9151;DHT22;4610;50.006;7.490;2023-03-31T06:47:55;8.70;99.90
9151;DHT22;4610;50.006;7.490;2023-03-31T06:50:22;8.70;99.90
9151;DHT22;4610;50.006;7.490;2023-03-31T06:52:49;8.80;99.90
9151;DHT22;4610;50.006;7.490;2023-03-31T06:55:17;8.80;99.90
9151;DHT22;4610;50.006;7.490;2023-03-31T06:57:44;8.90;99.90
9151;DHT22;4610;50.006;7.490;2023-03-31T07:00:13;8.90;99.90
9151;DHT22;4610;50.006;7.490;2023-03-31T07:02:40;8.90;99.90
9151;DHT22;4610;50.006;7.490;2023-03-31T07:05:08;8.90;99.90
9151;DHT22;4610;50.006;7.490;2023-03-31T07:07:35;8.90;99.90
9151;DHT22;4610;50.006;7.490;2023-03-31T07:10:01;8.90;99.90
9151;DHT22;4610;50.006;7.490;2023-03-31T07:12:31;8.90;99.90
9151;DHT22;4610;50.006;7.490;2023-03-31T07:14:59;9.00;99.90
9151;DHT22;4610;50.006;7.490;2023-03-31T07:17:27;9.10;99.90
9151;DHT22;4610;50.006;7.490;2023-03-31T07:19:54;9.20;99.90
9151;DHT22;4610;50.006;7.490;2023-03-31T07:22:20;9.60;99.90
9151;DHT22;4610;50.006;7.490;2023-03-31T07:24:47;10.90;99.90
9151;DHT22;4610;50.006;7.490;2023-03-31T07:27:14;11.40;99.90
9151;DHT22;4610;50.006;7.490;2023-03-31T07:29:41;11.40;99.90
9151;DHT22;4610;50.006;7.490;2023-03-31T07:32:07;11.20;99.90
9151;DHT22;4610;50.006;7.490;2023-03-31T07:34:36;11.00;99.90
9151;DHT22;4610;50.006;7.490;2023-03-31T07:37:03;10.90;99.90
9151;DHT22;4610;50.006;7.490;2023-03-31T07:39:30;10.90;99.90
9151;DHT22;4610;50.006;7.490;2023-03-31T07:41:57;10.90;99.90
9151;DHT22;4610;50.006;7.490;2023-03-31T07:44:24;11.70;99.90
9151;DHT22;4610;50.006;7.490;2023-03-31T07:46:51;12.00;99.90
9151;DHT22;4610;50.006;7.490;2023-03-31T07:49:18;12.10;99.90
9151;DHT22;4610;50.006;7.490;2023-03-31T07:51:46;11.90;99.90
9151;DHT22;4610;50.006;7.490;2023-03-31T07:54:12;11.70;99.90
9151;DHT22;4610;50.006;7.490;2023-03-31T07:56:39;11.30;99.90
9151;DHT22;4610;50.006;7.490;2023-03-31T07:59:06;11.10;99.90
9151;DHT22;4610;50.006;7.490;2023-03-31T08:01:32;11.00;99.90
9151;DHT22;4610;50.006;7.490;2023-03-31T08:03:59;10.80;99.90
9151;DHT22;4610;50.006;7.490;2023-03-31T08:06:26;10.70;99.90
9151;DHT22;4610;50.006;7.490;2023-03-31T08:08:56;10.70;99.90
9151;DHT22;4610;50.006;7.490;2023-03-31T08:11:23;10.80;99.90
9151;DHT22;4610;50.006;7.490;2023-03-31T08:13:51;10.80;99.90
9151;DHT22;4610;50.006;7.490;2023-03-31T08:16:18;11.10;99.90
9151;DHT22;4610;50.006;7.490;2023-03-31T08:18:44;11.40;99.90
9151;DHT22;4610;50.006;7.490;2023-03-31T08:21:11;11.80;99.90
9151;DHT22;4610;50.006;7.490;2023-03-31T08:23:38;13.00;99.90
9151;DHT22;4610;50.006;7.490;2023-03-31T08:26:11;13.80;99.90
9151;DHT22;4610;50.006;7.490;2023-03-31T08:28:38;15.00;99.90
9151;DHT22;4610;50.006;7.490;2023-03-31T08:31:06;15.80;99.90
9151;DHT22;4610;50.006;7.490;2023-03-31T08:33:34;16.40;99.90
9151;DHT22;4610;50.006;7.490;2023-03-31T08:36:02;16.50;99.90
9151;DHT22;4610;50.006;7.490;2023-03-31T08:38:30;16.80;99.90
9151;DHT22;4610;50.006;7.490;2023-03-31T08:40:58;17.20;99.90
9151;DHT22;4610;50.006;7.490;2023-03-31T08:43:30;17.30;99.90
9151;DHT22;4610;50.006;7.490;2023-03-31T08:45:59;16.80;99.90
9151;DHT22;4610;50.006;7.490;2023-03-31T08:48:28;15.60;99.90
9151;DHT22;4610;50.006;7.490;2023-03-31T08:51:00;15.00;99.90
9151;DHT22;4610;50.006;7.490;2023-03-31T08:53:32;14.20;99.90
9151;DHT22;4610;50.006;7.490;2023-03-31T08:56:01;13.70;99.90
9151;DHT22;4610;50.006;7.490;2023-03-31T08:58:35;13.50;99.90
9151;DHT22;4610;50.006;7.490;2023-03-31T09:01:11;13.40;99.90
9151;DHT22;4610;50.006;7.490;2023-03-31T09:03:56;13.40;99.90
9151;DHT22;4610;50.006;7.490;2023-03-31T09:06:34;13.40;99.90
9151;DHT22;4610;50.006;7.490;2023-03-31T09:09:05;13.40;99.90
9151;DHT22;4610;50.006;7.490;2023-03-31T09:11:38;13.40;99.90
9151;DHT22;4610;50.006;7.490;2023-03-31T09:14:26;13.20;99.90
9151;DHT22;4610;50.006;7.490;2023-03-31T09:17:04;13.00;99.90
9151;DHT22;4610;50.006;7.490;2023-03-31T09:19:36;12.70;99.90
9151;DHT22;4610;50.006;7.490;2023-03-31T09:22:08;12.30;99.90
9151;DHT22;4610;50.006;7.490;2023-03-31T09:24:45;12.20;99.90
9151;DHT22;4610;50.006;7.490;2023-03-31T09:27:14;12.10;99.90
9151;DHT22;4610;50.006;7.490;2023-03-31T09:29:45;12.10;99.90
9151;DHT22;4610;50.006;7.490;2023-03-31T09:32:16;12.30;99.90
9151;DHT22;4610;50.006;7.490;2023-03-31T09:34:43;12.30;99.90
9151;DHT22;4610;50.006;7.490;2023-03-31T09:37:11;12.00;99.90
9151;DHT22;4610;50.006;7.490;2023-03-31T09:39:39;11.90;99.90
9151;DHT22;4610;50.006;7.490;2023-03-31T09:42:08;11.50;99.90
9151;DHT22;4610;50.006;7.490;2023-03-31T09:44:37;11.50;99.90
9151;DHT22;4610;50.006;7.490;2023-03-31T09:47:12;11.50;99.90
9151;DHT22;4610;50.006;7.490;2023-03-31T09:49:44;11.80;99.90
9151;DHT22;4610;50.006;7.490;2023-03-31T09:52:15;12.10;99.90
9151;DHT22;4610;50.006;7.490;2023-03-31T09:54:47;12.40;99.90
9151;DHT22;4610;50.006;7.490;2023-03-31T09:57:23;12.80;99.90
9151;DHT22;4610;50.006;7.490;2023-03-31T09:59:52;13.10;99.90
9151;DHT22;4610;50.006;7.490;2023-03-31T10:02:37;13.60;99.90
9151;DHT22;4610;50.006;7.490;2023-03-31T10:05:06;14.20;99.90
9151;DHT22;4610;50.006;7.490;2023-03-31T10:07:43;14.70;99.90
9151;DHT22;4610;50.006;7.490;2023-03-31T10:10:16;14.90;99.90
9151;DHT22;4610;50.006;7.490;2023-03-31T10:12:50;15.30;99.90
9151;DHT22;4610;50.006;7.490;2023-03-31T10:15:19;15.60;99.90
9151;DHT22;4610;50.006;7.490;2023-03-31T10:17:49;15.50;99.90
9151;DHT22;4610;50.006;7.490;2023-03-31T10:20:30;15.60;99.90
9151;DHT22;4610;50.006;7.490;2023-03-31T10:23:02;15.50;99.90
9151;DHT22;4610;50.006;7.490;2023-03-31T10:25:31;15.50;99.90
9151;DHT22;4610;50.006;7.490;2023-03-31T10:28:01;15.70;99.90
9151;DHT22;4610;50.006;7.490;2023-03-31T10:30:33;15.70;99.90
9151;DHT22;4610;50.006;7.490;2023-03-31T10:33:06;15.50;99.90
9151;DHT22;4610;50.006;7.490;2023-03-31T10:35:37;15.40;99.90
9151;DHT22;4610;50.006;7.490;2023-03-31T10:38:05;15.20;99.90
9151;DHT22;4610;50.006;7.490;2023-03-31T10:40:34;15.10;99.90
9151;DHT22;4610;50.006;7.490;2023-03-31T10:43:04;14.80;99.90
9151;DHT22;4610;50.006;7.490;2023-03-31T10:45:36;14.60;99.90
9151;DHT22;4610;50.006;7.490;2023-03-31T10:48:22;14.50;99.90
9151;DHT22;4610;50.006;7.490;2023-03-31T10:50:50;14.40;99.90
9151;DHT22;4610;50.006;7.490;2023-03-31T10:53:17;14.30;99.90
9151;DHT22;4610;50.006;7.490;2023-03-31T10:55:56;14.30;99.90
9151;DHT22;4610;50.006;7.490;2023-03-31T10:58:33;14.30;99.90
9151;DHT22;4610;50.006;7.490;2023-03-31T11:01:13;14.10;99.90
9151;DHT22;4610;50.006;7.490;2023-03-31T11:04:06;14.10;99.90
9151;DHT22;4610;50.006;7.490;2023-03-31T11:06:48;14.10;99.90
9151;DHT22;4610;50.006;7.490;2023-03-31T11:09:32;14.30;99.90
9151;DHT22;4610;50.006;7.490;2023-03-31T11:12:07;14.60;99.90
9151;DHT22;4610;50.006;7.490;2023-03-31T11:14:44;14.80;99.90
9151;DHT22;4610;50.006;7.490;2023-03-31T11:17:25;15.10;99.90
9151;DHT22;4610;50.006;7.490;2023-03-31T11:20:02;15.30;99.90
9151;DHT22;4610;50.006;7.490;2023-03-31T11:22:43;15.30;99.90
9151;DHT22;4610;50.006;7.490;2023-03-31T11:25:21;15.10;99.90
9151;DHT22;4610;50.006;7.490;2023-03-31T11:27:58;15.00;99.90
9151;DHT22;4610;50.006;7.490;2023-03-31T11:30:30;14.80;99.90
9151;DHT22;4610;50.006;7.490;2023-03-31T11:33:10;15.10;99.90
9151;DHT22;4610;50.006;7.490;2023-03-31T11:35:52;15.20;99.90
9151;DHT22;4610;50.006;7.490;2023-03-31T11:38:37;15.20;99.90
9151;DHT22;4610;50.006;7.490;2023-03-31T11:41:13;15.40;99.90
9151;DHT22;4610;50.006;7.490;2023-03-31T11:43:43;15.50;99.90
9151;DHT22;4610;50.006;7.490;2023-03-31T11:46:14;15.70;99.90
9151;DHT22;4610;50.006;7.490;2023-03-31T11:48:45;15.80;99.90
9151;DHT22;4610;50.006;7.490;2023-03-31T11:51:18;15.80;99.90
9151;DHT22;4610;50.006;7.490;2023-03-31T11:53:47;15.90;99.90
9151;DHT22;4610;50.006;7.490;2023-03-31T11:56:15;15.90;99.90
9151;DHT22;4610;50.006;7.490;2023-03-31T11:58:44;15.90;99.90
9151;DHT22;4610;50.006;7.490;2023-03-31T12:01:17;15.60;99.90
9151;DHT22;4610;50.006;7.490;2023-03-31T12:03:51;15.30;99.90
9151;DHT22;4610;50.006;7.490;2023-03-31T12:06:22;14.60;99.90
9151;DHT22;4610;50.006;7.490;2023-03-31T12:08:56;14.00;99.90
9151;DHT22;4610;50.006;7.490;2023-03-31T12:11:32;13.60;99.90
9151;DHT22;4610;50.006;7.490;2023-03-31T12:14:12;13.30;99.90
9151;DHT22;4610;50.006;7.490;2023-03-31T12:16:42;13.30;99.90
9151;DHT22;4610;50.006;7.490;2023-03-31T12:19:13;13.50;99.90
9151;DHT22;4610;50.006;7.490;2023-03-31T12:21:47;13.60;99.90
9151;DHT22;4610;50.006;7.490;2023-03-31T12:24:14;14.00;99.90
9151;DHT22;4610;50.006;7.490;2023-03-31T12:26:49;14.40;99.90
9151;DHT22;4610;50.006;7.490;2023-03-31T12:29:25;14.60;99.90
9151;DHT22;4610;50.006;7.490;2023-03-31T12:31:55;14.80;99.90
9151;DHT22;4610;50.006;7.490;2023-03-31T12:34:24;15.00;99.90
9151;DHT22;4610;50.006;7.490;2023-03-31T12:37:12;15.10;99.90
9151;DHT22;4610;50.006;7.490;2023-03-31T12:39:51;15.00;99.90
9151;DHT22;4610;50.006;7.490;2023-03-31T12:42:51;15.10;99.90
9151;DHT22;4610;50.006;7.490;2023-03-31T12:45:25;15.20;99.90
9151;DHT22;4610;50.006;7.490;2023-03-31T12:51:01;14.30;99.90
9151;DHT22;4610;50.006;7.490;2023-03-31T12:53:42;13.80;99.90
9151;DHT22;4610;50.006;7.490;2023-03-31T12:56:13;13.80;99.90
9151;DHT22;4610;50.006;7.490;2023-03-31T12:58:44;13.90;99.90
9151;DHT22;4610;50.006;7.490;2023-03-31T13:01:16;14.00;99.90
9151;DHT22;4610;50.006;7.490;2023-03-31T13:03:51;14.10;99.90
9151;DHT22;4610;50.006;7.490;2023-03-31T13:09:46;13.90;99.90
9151;DHT22;4610;50.006;7.490;2023-03-31T13:12:18;13.80;99.90
9151;DHT22;4610;50.006;7.490;2023-03-31T13:14:47;13.90;99.90
9151;DHT22;4610;50.006;7.490;2023-03-31T13:17:27;13.90;99.90
9151;DHT22;4610;50.006;7.490;2023-03-31T13:19:55;14.10;99.90
9151;DHT22;4610;50.006;7.490;2023-03-31T13:22:31;14.00;99.90
9151;DHT22;4610;50.006;7.490;2023-03-31T13:25:41;14.20;99.90
9151;DHT22;4610;50.006;7.490;2023-03-31T13:28:30;14.30;99.90
9151;DHT22;4610;50.006;7.490;2023-03-31T13:30:59;14.40;99.90
9151;DHT22;4610;50.006;7.490;2023-03-31T13:33:37;14.40;99.90
9151;DHT22;4610;50.006;7.490;2023-03-31T13:39:43;14.30;99.90
9151;DHT22;4610;50.006;7.490;2023-03-31T13:42:31;14.40;99.90
9151;DHT22;4610;50.006;7.490;2023-03-31T13:45:17;14.20;99.90
9151;DHT22;4610;50.006;7.490;2023-03-31T13:48:13;14.20;99.90
9151;DHT22;4610;50.006;7.490;2023-03-31T13:50:56;14.20;99.90
9151;DHT22;4610;50.006;7.490;2023-03-31T13:53:55;14.10;99.90
9151;DHT22;4610;50.006;7.490;2023-03-31T13:56:40;14.10;99.90
9151;DHT22;4610;50.006;7.490;2023-03-31T13:59:28;14.10;99.90
9151;DHT22;4610;50.006;7.490;2023-03-31T14:02:11;14.00;99.90
9151;DHT22;4610;50.006;7.490;2023-03-31T14:07:52;13.50;99.90
9151;DHT22;4610;50.006;7.490;2023-03-31T14:10:24;13.30;99.90
9151;DHT22;4610;50.006;7.490;2023-03-31T14:13:02;13.40;99.90
9151;DHT22;4610;50.006;7.490;2023-03-31T14:15:31;13.30;99.90
9151;DHT22;4610;50.006;7.490;2023-03-31T14:17:59;13.40;99.90
9151;DHT22;4610;50.006;7.490;2023-03-31T14:20:34;13.40;99.90
9151;DHT22;4610;50.006;7.490;2023-03-31T14:23:13;13.40;99.90
9151;DHT22;4610;50.006;7.490;2023-03-31T14:25:49;13.40;99.90
9151;DHT22;4610;50.006;7.490;2023-03-31T14:28:27;13.30;99.90
9151;DHT22;4610;50.006;7.490;2023-03-31T14:31:08;13.40;99.90
9151;DHT22;4610;50.006;7.490;2023-03-31T14:33:42;13.50;99.90
9151;DHT22;4610;50.006;7.490;2023-03-31T14:36:16;13.50;99.90
9151;DHT22;4610;50.006;7.490;2023-03-31T14:38:47;13.40;99.90
9151;DHT22;4610;50.006;7.490;2023-03-31T14:41:16;13.60;99.90
9151;DHT22;4610;50.006;7.490;2023-03-31T14:43:47;13.80;99.90
9151;DHT22;4610;50.006;7.490;2023-03-31T14:46:18;14.00;99.90
9151;DHT22;4610;50.006;7.490;2023-03-31T14:48:47;13.80;99.90
9151;DHT22;4610;50.006;7.490;2023-03-31T14:51:16;13.70;99.90
9151;DHT22;4610;50.006;7.490;2023-03-31T14:53:44;13.70;99.90
9151;DHT22;4610;50.006;7.490;2023-03-31T14:56:12;13.60;99.90
9151;DHT22;4610;50.006;7.490;2023-03-31T14:58:42;13.60;99.90
9151;DHT22;4610;50.006;7.490;2023-03-31T15:01:16;13.60;99.90
9151;DHT22;4610;50.006;7.490;2023-03-31T15:03:44;13.60;99.90
9151;DHT22;4610;50.006;7.490;2023-03-31T15:06:12;13.60;99.90
9151;DHT22;4610;50.006;7.490;2023-03-31T15:08:40;13.50;99.90
9151;DHT22;4610;50.006;7.490;2023-03-31T15:11:09;13.50;99.90
9151;DHT22;4610;50.006;7.490;2023-03-31T15:13:40;13.50;99.90
9151;DHT22;4610;50.006;7.490;2023-03-31T15:16:28;13.60;99.90
9151;DHT22;4610;50.006;7.490;2023-03-31T15:18:57;13.50;99.90
9151;DHT22;4610;50.006;7.490;2023-03-31T15:21:26;13.40;99.90
9151;DHT22;4610;50.006;7.490;2023-03-31T15:23:54;13.20;99.90
9151;DHT22;4610;50.006;7.490;2023-03-31T15:26:26;12.90;99.90
9151;DHT22;4610;50.006;7.490;2023-03-31T15:28:55;12.50;99.90
9151;DHT22;4610;50.006;7.490;2023-03-31T15:31:25;12.30;99.90
9151;DHT22;4610;50.006;7.490;2023-03-31T15:33:52;12.30;99.90
9151;DHT22;4610;50.006;7.490;2023-03-31T15:36:20;12.30;99.90
9151;DHT22;4610;50.006;7.490;2023-03-31T15:38:54;12.30;99.90
9151;DHT22;4610;50.006;7.490;2023-03-31T15:41:21;12.40;99.90
9151;DHT22;4610;50.006;7.490;2023-03-31T15:43:49;12.50;99.90
9151;DHT22;4610;50.006;7.490;2023-03-31T15:46:49;12.60;99.90
9151;DHT22;4610;50.006;7.490;2023-03-31T15:49:23;12.70;99.90
9151;DHT22;4610;50.006;7.490;2023-03-31T15:51:51;12.70;99.90
9151;DHT22;4610;50.006;7.490;2023-03-31T15:54:33;12.50;99.90
9151;DHT22;4610;50.006;7.490;2023-03-31T15:57:01;12.50;99.90
9151;DHT22;4610;50.006;7.490;2023-03-31T15:59:29;12.50;99.90
9151;DHT22;4610;50.006;7.490;2023-03-31T16:01:58;12.60;99.90
9151;DHT22;4610;50.006;7.490;2023-03-31T16:04:30;12.60;99.90
9151;DHT22;4610;50.006;7.490;2023-03-31T16:07:01;12.60;99.90
9151;DHT22;4610;50.006;7.490;2023-03-31T16:09:39;12.60;99.90
9151;DHT22;4610;50.006;7.490;2023-03-31T16:12:14;12.60;99.90
9151;DHT22;4610;50.006;7.490;2023-03-31T16:14:45;12.60;99.90
9151;DHT22;4610;50.006;7.490;2023-03-31T16:17:20;12.60;99.90
9151;DHT22;4610;50.006;7.490;2023-03-31T16:19:53;12.60;99.90
9151;DHT22;4610;50.006;7.490;2023-03-31T16:22:28;12.60;99.90
9151;DHT22;4610;50.006;7.490;2023-03-31T16:24:55;12.60;99.90
9151;DHT22;4610;50.006;7.490;2023-03-31T16:27:22;12.60;99.90
9151;DHT22;4610;50.006;7.490;2023-03-31T16:29:49;12.50;99.90
9151;DHT22;4610;50.006;7.490;2023-03-31T16:32:18;12.40;99.90
9151;DHT22;4610;50.006;7.490;2023-03-31T16:34:55;12.30;99.90
9151;DHT22;4610;50.006;7.490;2023-03-31T16:37:23;12.20;99.90
9151;DHT22;4610;50.006;7.490;2023-03-31T16:39:50;12.10;99.90
9151;DHT22;4610;50.006;7.490;2023-03-31T16:42:16;12.10;99.90
9151;DHT22;4610;50.006;7.490;2023-03-31T16:44:43;12.10;99.90
9151;DHT22;4610;50.006;7.490;2023-03-31T16:47:10;12.10;99.90
9151;DHT22;4610;50.006;7.490;2023-03-31T16:49:39;12.10;99.90
9151;DHT22;4610;50.006;7.490;2023-03-31T16:52:06;12.00;99.90
9151;DHT22;4610;50.006;7.490;2023-03-31T16:54:34;12.00;99.90
9151;DHT22;4610;50.006;7.490;2023-03-31T16:57:01;11.80;99.90